sensor_id;sensor_type;location;lat;lon;timestamp;temperature;humidity
62916;DHT22;49010;51.230;-2.306;2023-02-18T00:00:15;12.20;99.90
62916;DHT22;49010;51.230;-2.306;2023-02-18T00:03:59;12.20;99.90
62916;DHT22;49010;51.230;-2.306;2023-02-18T00:07:41;12.10;99.90
62916;DHT22;49010;51.230;-2.306;2023-02-18T00:11:23;12.10;99.90
62916;DHT22;49010;51.230;-2.306;2023-02-18T00:15:06;12.00;99.90
62916;DHT22;49010;51.230;-2.306;2023-02-18T00:18:48;11.90;99.90
62916;DHT22;49010;51.230;-2.306;2023-02-18T00:22:30;11.90;99.90
62916;DHT22;49010;51.230;-2.306;2023-02-18T00:26:14;11.90;99.90
62916;DHT22;49010;51.230;-2.306;2023-02-18T00:29:57;12.00;99.90
62916;DHT22;49010;51.230;-2.306;2023-02-18T00:33:40;12.00;99.90
62916;DHT22;49010;51.230;-2.306;2023-02-18T00:37:22;11.90;99.90
62916;DHT22;49010;51.230;-2.306;2023-02-18T00:41:05;11.90;99.90
62916;DHT22;49010;51.230;-2.306;2023-02-18T00:44:47;11.90;99.90
62916;DHT22;49010;51.230;-2.306;2023-02-18T00:48:29;11.90;99.80
62916;DHT22;49010;51.230;-2.306;2023-02-18T00:52:11;11.90;99.90
62916;DHT22;49010;51.230;-2.306;2023-02-18T00:55:52;11.90;99.80
62916;DHT22;49010;51.230;-2.306;2023-02-18T00:59:34;11.90;99.90
62916;DHT22;49010;51.230;-2.306;2023-02-18T01:03:16;11.90;99.40
62916;DHT22;49010;51.230;-2.306;2023-02-18T01:06:58;11.80;99.20
62916;DHT22;49010;51.230;-2.306;2023-02-18T01:10:42;11.90;99.00
62916;DHT22;49010;51.230;-2.306;2023-02-18T01:14:25;11.90;98.90
62916;DHT22;49010;51.230;-2.306;2023-02-18T01:18:07;11.90;98.70
62916;DHT22;49010;51.230;-2.306;2023-02-18T01:21:49;11.90;98.50
62916;DHT22;49010;51.230;-2.306;2023-02-18T01:25:32;11.80;98.10
62916;DHT22;49010;51.230;-2.306;2023-02-18T01:29:14;11.80;98.30
62916;DHT22;49010;51.230;-2.306;2023-02-18T01:32:56;11.80;98.00
62916;DHT22;49010;51.230;-2.306;2023-02-18T01:36:38;11.80;97.50
62916;DHT22;49010;51.230;-2.306;2023-02-18T01:40:26;11.80;97.40
62916;DHT22;49010;51.230;-2.306;2023-02-18T01:44:15;11.80;97.40
62916;DHT22;49010;51.230;-2.306;2023-02-18T01:48:12;11.80;97.10
62916;DHT22;49010;51.230;-2.306;2023-02-18T01:52:02;11.80;97.30
62916;DHT22;49010;51.230;-2.306;2023-02-18T01:55:47;11.80;97.10
62916;DHT22;49010;51.230;-2.306;2023-02-18T01:59:37;11.80;96.70
62916;DHT22;49010;51.230;-2.306;2023-02-18T02:03:19;11.80;96.70
62916;DHT22;49010;51.230;-2.306;2023-02-18T02:07:01;11.80;96.40
62916;DHT22;49010;51.230;-2.306;2023-02-18T02:18:50;11.80;96.20
62916;DHT22;49010;51.230;-2.306;2023-02-18T02:30:39;11.70;96.30
62916;DHT22;49010;51.230;-2.306;2023-02-18T02:46:33;11.70;96.10
62916;DHT22;49010;51.230;-2.306;2023-02-18T02:54:21;11.70;96.10
62916;DHT22;49010;51.230;-2.306;2023-02-18T02:58:03;11.60;96.20
62916;DHT22;49010;51.230;-2.306;2023-02-18T03:10:04;11.60;96.40
62916;DHT22;49010;51.230;-2.306;2023-02-18T03:14:04;11.60;96.50
62916;DHT22;49010;51.230;-2.306;2023-02-18T03:18:06;11.60;96.70
62916;DHT22;49010;51.230;-2.306;2023-02-18T03:21:59;11.50;96.70
62916;DHT22;49010;51.230;-2.306;2023-02-18T03:25:44;11.50;96.90
62916;DHT22;49010;51.230;-2.306;2023-02-18T03:29:26;11.40;96.80
62916;DHT22;49010;51.230;-2.306;2023-02-18T03:33:14;11.50;96.90
62916;DHT22;49010;51.230;-2.306;2023-02-18T03:36:59;11.50;96.90
62916;DHT22;49010;51.230;-2.306;2023-02-18T03:40:41;11.50;96.90
62916;DHT22;49010;51.230;-2.306;2023-02-18T03:44:24;11.40;96.90
62916;DHT22;49010;51.230;-2.306;2023-02-18T03:48:07;11.50;96.90
62916;DHT22;49010;51.230;-2.306;2023-02-18T03:51:49;11.40;96.80
62916;DHT22;49010;51.230;-2.306;2023-02-18T03:55:30;11.50;96.90
62916;DHT22;49010;51.230;-2.306;2023-02-18T03:59:12;11.50;96.90
62916;DHT22;49010;51.230;-2.306;2023-02-18T04:02:54;11.50;96.90
62916;DHT22;49010;51.230;-2.306;2023-02-18T04:06:36;11.50;96.90
62916;DHT22;49010;51.230;-2.306;2023-02-18T04:10:18;11.40;97.00
62916;DHT22;49010;51.230;-2.306;2023-02-18T04:14:00;11.50;97.00
62916;DHT22;49010;51.230;-2.306;2023-02-18T04:17:41;11.50;97.10
62916;DHT22;49010;51.230;-2.306;2023-02-18T04:21:23;11.50;97.20
62916;DHT22;49010;51.230;-2.306;2023-02-18T04:25:05;11.40;97.20
62916;DHT22;49010;51.230;-2.306;2023-02-18T04:28:47;11.40;97.30
62916;DHT22;49010;51.230;-2.306;2023-02-18T04:32:29;11.40;97.30
62916;DHT22;49010;51.230;-2.306;2023-02-18T04:36:11;11.40;97.40
62916;DHT22;49010;51.230;-2.306;2023-02-18T04:39:53;11.40;97.50
62916;DHT22;49010;51.230;-2.306;2023-02-18T04:43:34;11.40;97.50
62916;DHT22;49010;51.230;-2.306;2023-02-18T04:47:16;11.40;97.50
62916;DHT22;49010;51.230;-2.306;2023-02-18T04:50:58;11.50;97.90
62916;DHT22;49010;51.230;-2.306;2023-02-18T04:54:40;11.40;97.70
62916;DHT22;49010;51.230;-2.306;2023-02-18T04:58:22;11.40;97.80
62916;DHT22;49010;51.230;-2.306;2023-02-18T05:02:04;11.50;97.90
62916;DHT22;49010;51.230;-2.306;2023-02-18T05:05:46;11.40;98.00
62916;DHT22;49010;51.230;-2.306;2023-02-18T05:09:27;11.50;98.10
62916;DHT22;49010;51.230;-2.306;2023-02-18T05:13:09;11.40;98.10
62916;DHT22;49010;51.230;-2.306;2023-02-18T05:16:51;11.50;98.20
62916;DHT22;49010;51.230;-2.306;2023-02-18T05:20:33;11.50;98.10
62916;DHT22;49010;51.230;-2.306;2023-02-18T05:24:15;11.50;98.10
62916;DHT22;49010;51.230;-2.306;2023-02-18T05:27:57;11.50;98.00
62916;DHT22;49010;51.230;-2.306;2023-02-18T05:31:39;11.50;98.00
62916;DHT22;49010;51.230;-2.306;2023-02-18T05:35:21;11.60;98.00
62916;DHT22;49010;51.230;-2.306;2023-02-18T05:39:03;11.60;98.00
62916;DHT22;49010;51.230;-2.306;2023-02-18T05:42:44;11.60;98.00
62916;DHT22;49010;51.230;-2.306;2023-02-18T05:46:26;11.60;98.00
62916;DHT22;49010;51.230;-2.306;2023-02-18T05:50:08;11.60;98.00
62916;DHT22;49010;51.230;-2.306;2023-02-18T05:53:50;11.60;98.10
62916;DHT22;49010;51.230;-2.306;2023-02-18T05:57:32;11.50;98.10
62916;DHT22;49010;51.230;-2.306;2023-02-18T06:01:14;11.60;98.30
62916;DHT22;49010;51.230;-2.306;2023-02-18T06:04:55;11.50;98.30
62916;DHT22;49010;51.230;-2.306;2023-02-18T06:08:37;11.50;98.30
62916;DHT22;49010;51.230;-2.306;2023-02-18T06:12:19;11.50;98.40
62916;DHT22;49010;51.230;-2.306;2023-02-18T06:16:01;11.50;98.50
62916;DHT22;49010;51.230;-2.306;2023-02-18T06:19:43;11.50;98.40
62916;DHT22;49010;51.230;-2.306;2023-02-18T06:23:25;11.50;98.50
62916;DHT22;49010;51.230;-2.306;2023-02-18T06:27:07;11.50;98.60
62916;DHT22;49010;51.230;-2.306;2023-02-18T06:30:49;11.50;98.60
62916;DHT22;49010;51.230;-2.306;2023-02-18T06:34:31;11.50;98.60
62916;DHT22;49010;51.230;-2.306;2023-02-18T06:38:13;11.50;98.70
62916;DHT22;49010;51.230;-2.306;2023-02-18T06:41:54;11.40;98.70
62916;DHT22;49010;51.230;-2.306;2023-02-18T06:45:38;11.50;98.80
62916;DHT22;49010;51.230;-2.306;2023-02-18T06:49:19;11.50;98.90
62916;DHT22;49010;51.230;-2.306;2023-02-18T06:53:01;11.40;98.90
62916;DHT22;49010;51.230;-2.306;2023-02-18T06:56:43;11.50;99.00
62916;DHT22;49010;51.230;-2.306;2023-02-18T07:00:25;11.50;99.10
62916;DHT22;49010;51.230;-2.306;2023-02-18T07:04:08;11.40;99.20
62916;DHT22;49010;51.230;-2.306;2023-02-18T07:07:49;11.40;99.30
62916;DHT22;49010;51.230;-2.306;2023-02-18T07:11:32;11.50;99.40
62916;DHT22;49010;51.230;-2.306;2023-02-18T07:15:14;11.50;99.50
62916;DHT22;49010;51.230;-2.306;2023-02-18T07:18:56;11.50;99.50
62916;DHT22;49010;51.230;-2.306;2023-02-18T07:22:37;11.50;99.80
62916;DHT22;49010;51.230;-2.306;2023-02-18T07:26:19;11.40;99.80
62916;DHT22;49010;51.230;-2.306;2023-02-18T07:30:01;11.40;99.90
62916;DHT22;49010;51.230;-2.306;2023-02-18T07:33:43;11.40;99.90
62916;DHT22;49010;51.230;-2.306;2023-02-18T07:37:25;11.40;99.90
62916;DHT22;49010;51.230;-2.306;2023-02-18T07:41:18;11.40;99.90
62916;DHT22;49010;51.230;-2.306;2023-02-18T07:45:00;11.50;99.90
62916;DHT22;49010;51.230;-2.306;2023-02-18T07:48:42;11.50;99.90
62916;DHT22;49010;51.230;-2.306;2023-02-18T07:52:24;11.50;99.90
62916;DHT22;49010;51.230;-2.306;2023-02-18T07:56:06;11.50;99.90
62916;DHT22;49010;51.230;-2.306;2023-02-18T07:59:48;11.50;99.90
62916;DHT22;49010;51.230;-2.306;2023-02-18T08:03:31;11.50;99.90
62916;DHT22;49010;51.230;-2.306;2023-02-18T08:07:17;11.60;99.90
62916;DHT22;49010;51.230;-2.306;2023-02-18T08:11:01;11.60;99.90
62916;DHT22;49010;51.230;-2.306;2023-02-18T08:14:58;11.60;99.90
62916;DHT22;49010;51.230;-2.306;2023-02-18T08:18:40;11.60;99.90
62916;DHT22;49010;51.230;-2.306;2023-02-18T08:22:22;11.60;99.90
62916;DHT22;49010;51.230;-2.306;2023-02-18T08:26:04;11.70;99.90
62916;DHT22;49010;51.230;-2.306;2023-02-18T08:29:47;11.70;99.90
62916;DHT22;49010;51.230;-2.306;2023-02-18T08:33:29;11.80;99.90
62916;DHT22;49010;51.230;-2.306;2023-02-18T08:37:11;11.80;99.90
62916;DHT22;49010;51.230;-2.306;2023-02-18T08:41:01;11.90;99.90
62916;DHT22;49010;51.230;-2.306;2023-02-18T08:44:43;11.90;99.90
62916;DHT22;49010;51.230;-2.306;2023-02-18T08:48:27;11.90;99.90
62916;DHT22;49010;51.230;-2.306;2023-02-18T08:52:09;12.00;99.90
62916;DHT22;49010;51.230;-2.306;2023-02-18T08:55:51;12.00;99.90
62916;DHT22;49010;51.230;-2.306;2023-02-18T08:59:32;12.10;99.90
62916;DHT22;49010;51.230;-2.306;2023-02-18T09:03:14;12.10;99.90
62916;DHT22;49010;51.230;-2.306;2023-02-18T09:06:56;12.20;99.90
62916;DHT22;49010;51.230;-2.306;2023-02-18T09:10:38;12.30;99.90
62916;DHT22;49010;51.230;-2.306;2023-02-18T09:14:20;12.30;99.90
62916;DHT22;49010;51.230;-2.306;2023-02-18T09:18:02;12.30;99.90
62916;DHT22;49010;51.230;-2.306;2023-02-18T09:21:44;12.40;99.90
62916;DHT22;49010;51.230;-2.306;2023-02-18T09:25:26;12.40;99.90
62916;DHT22;49010;51.230;-2.306;2023-02-18T09:29:08;12.50;99.90
62916;DHT22;49010;51.230;-2.306;2023-02-18T09:32:50;12.60;99.90
62916;DHT22;49010;51.230;-2.306;2023-02-18T09:36:32;12.80;99.90
62916;DHT22;49010;51.230;-2.306;2023-02-18T09:40:30;12.90;99.90
62916;DHT22;49010;51.230;-2.306;2023-02-18T09:44:23;13.00;99.90
62916;DHT22;49010;51.230;-2.306;2023-02-18T09:48:05;13.10;99.90
62916;DHT22;49010;51.230;-2.306;2023-02-18T09:51:47;13.20;99.90
62916;DHT22;49010;51.230;-2.306;2023-02-18T09:55:34;13.30;99.90
62916;DHT22;49010;51.230;-2.306;2023-02-18T09:59:20;13.30;99.90
62916;DHT22;49010;51.230;-2.306;2023-02-18T10:06:48;13.50;99.90
62916;DHT22;49010;51.230;-2.306;2023-02-18T10:10:37;13.50;99.90
62916;DHT22;49010;51.230;-2.306;2023-02-18T10:14:20;13.60;99.90
62916;DHT22;49010;51.230;-2.306;2023-02-18T10:18:02;13.60;99.90
62916;DHT22;49010;51.230;-2.306;2023-02-18T10:21:45;13.60;99.90
62916;DHT22;49010;51.230;-2.306;2023-02-18T10:25:28;13.60;99.90
62916;DHT22;49010;51.230;-2.306;2023-02-18T10:29:15;13.60;99.90
62916;DHT22;49010;51.230;-2.306;2023-02-18T10:33:35;13.60;99.90
62916;DHT22;49010;51.230;-2.306;2023-02-18T10:53:34;13.70;99.90
62916;DHT22;49010;51.230;-2.306;2023-02-18T10:57:19;13.70;99.90
62916;DHT22;49010;51.230;-2.306;2023-02-18T11:01:06;13.70;99.90
62916;DHT22;49010;51.230;-2.306;2023-02-18T11:04:53;13.70;99.90
62916;DHT22;49010;51.230;-2.306;2023-02-18T11:08:42;13.70;99.90
62916;DHT22;49010;51.230;-2.306;2023-02-18T11:12:45;13.80;99.90
62916;DHT22;49010;51.230;-2.306;2023-02-18T11:16:43;13.80;99.90
62916;DHT22;49010;51.230;-2.306;2023-02-18T11:20:34;13.80;99.90
62916;DHT22;49010;51.230;-2.306;2023-02-18T11:24:19;13.90;99.90
62916;DHT22;49010;51.230;-2.306;2023-02-18T11:28:06;14.00;99.90
62916;DHT22;49010;51.230;-2.306;2023-02-18T11:32:03;14.10;99.90
62916;DHT22;49010;51.230;-2.306;2023-02-18T11:35:53;14.10;99.90
62916;DHT22;49010;51.230;-2.306;2023-02-18T11:39:36;14.20;99.90
62916;DHT22;49010;51.230;-2.306;2023-02-18T11:43:30;14.20;99.90
62916;DHT22;49010;51.230;-2.306;2023-02-18T11:51:00;14.20;99.90
62916;DHT22;49010;51.230;-2.306;2023-02-18T11:54:42;14.40;99.90
62916;DHT22;49010;51.230;-2.306;2023-02-18T11:58:41;14.30;99.90
62916;DHT22;49010;51.230;-2.306;2023-02-18T12:02:32;14.20;99.90
62916;DHT22;49010;51.230;-2.306;2023-02-18T12:06:24;14.20;99.90
62916;DHT22;49010;51.230;-2.306;2023-02-18T12:10:18;14.20;99.90
62916;DHT22;49010;51.230;-2.306;2023-02-18T12:14:01;14.20;99.90
62916;DHT22;49010;51.230;-2.306;2023-02-18T12:17:59;14.20;99.90
62916;DHT22;49010;51.230;-2.306;2023-02-18T12:21:59;14.20;99.90
62916;DHT22;49010;51.230;-2.306;2023-02-18T12:33:54;14.20;99.90
62916;DHT22;49010;51.230;-2.306;2023-02-18T12:41:37;14.20;99.90
62916;DHT22;49010;51.230;-2.306;2023-02-18T12:45:55;14.10;99.90
62916;DHT22;49010;51.230;-2.306;2023-02-18T13:02:14;14.20;99.90
62916;DHT22;49010;51.230;-2.306;2023-02-18T13:06:26;14.10;99.90
62916;DHT22;49010;51.230;-2.306;2023-02-18T13:14:23;14.20;99.90
62916;DHT22;49010;51.230;-2.306;2023-02-18T13:18:40;14.10;99.90
62916;DHT22;49010;51.230;-2.306;2023-02-18T13:22:23;14.20;99.90
62916;DHT22;49010;51.230;-2.306;2023-02-18T13:26:09;14.20;99.90
62916;DHT22;49010;51.230;-2.306;2023-02-18T13:34:23;14.10;99.90
62916;DHT22;49010;51.230;-2.306;2023-02-18T13:42:29;14.30;99.80
62916;DHT22;49010;51.230;-2.306;2023-02-18T13:49:56;14.70;98.20
62916;DHT22;49010;51.230;-2.306;2023-02-18T13:53:42;14.80;97.90
62916;DHT22;49010;51.230;-2.306;2023-02-18T13:57:26;14.90;97.60
62916;DHT22;49010;51.230;-2.306;2023-02-18T14:04:55;14.80;96.30
62916;DHT22;49010;51.230;-2.306;2023-02-18T14:08:38;14.90;95.90
62916;DHT22;49010;51.230;-2.306;2023-02-18T14:12:42;14.90;95.80
62916;DHT22;49010;51.230;-2.306;2023-02-18T14:16:24;15.00;95.70
62916;DHT22;49010;51.230;-2.306;2023-02-18T14:23:57;15.30;95.10
62916;DHT22;49010;51.230;-2.306;2023-02-18T14:27:40;15.30;95.70
62916;DHT22;49010;51.230;-2.306;2023-02-18T14:31:33;15.20;94.70
62916;DHT22;49010;51.230;-2.306;2023-02-18T14:39:36;15.60;95.00
62916;DHT22;49010;51.230;-2.306;2023-02-18T14:43:54;15.60;94.20
62916;DHT22;49010;51.230;-2.306;2023-02-18T14:51:54;15.40;94.10
62916;DHT22;49010;51.230;-2.306;2023-02-18T14:55:42;15.50;94.90
62916;DHT22;49010;51.230;-2.306;2023-02-18T14:59:27;15.50;93.30
62916;DHT22;49010;51.230;-2.306;2023-02-18T15:03:16;15.40;93.30
62916;DHT22;49010;51.230;-2.306;2023-02-18T15:07:03;15.30;93.80
62916;DHT22;49010;51.230;-2.306;2023-02-18T15:14:35;14.90;94.50
62916;DHT22;49010;51.230;-2.306;2023-02-18T15:18:31;14.80;94.80
62916;DHT22;49010;51.230;-2.306;2023-02-18T15:22:20;14.70;95.10
62916;DHT22;49010;51.230;-2.306;2023-02-18T15:26:02;14.60;95.40
62916;DHT22;49010;51.230;-2.306;2023-02-18T15:29:52;14.30;95.80
62916;DHT22;49010;51.230;-2.306;2023-02-18T15:33:34;14.10;96.20
62916;DHT22;49010;51.230;-2.306;2023-02-18T15:37:16;14.00;96.30
62916;DHT22;49010;51.230;-2.306;2023-02-18T15:40:58;13.90;96.10
62916;DHT22;49010;51.230;-2.306;2023-02-18T15:44:46;13.90;96.10
62916;DHT22;49010;51.230;-2.306;2023-02-18T15:48:42;13.90;96.30
62916;DHT22;49010;51.230;-2.306;2023-02-18T15:52:30;13.90;95.90
62916;DHT22;49010;51.230;-2.306;2023-02-18T15:56:20;13.80;95.50
62916;DHT22;49010;51.230;-2.306;2023-02-18T16:04:01;13.90;95.70
62916;DHT22;49010;51.230;-2.306;2023-02-18T16:07:57;13.90;94.70
62916;DHT22;49010;51.230;-2.306;2023-02-18T16:11:52;13.80;94.60
62916;DHT22;49010;51.230;-2.306;2023-02-18T16:15:40;13.80;94.30
62916;DHT22;49010;51.230;-2.306;2023-02-18T16:19:25;13.90;94.10
62916;DHT22;49010;51.230;-2.306;2023-02-18T16:23:11;13.80;94.10
62916;DHT22;49010;51.230;-2.306;2023-02-18T16:26:59;13.80;94.00
62916;DHT22;49010;51.230;-2.306;2023-02-18T16:30:42;13.80;95.20
62916;DHT22;49010;51.230;-2.306;2023-02-18T16:34:25;13.60;94.50
62916;DHT22;49010;51.230;-2.306;2023-02-18T16:38:18;13.50;94.80
62916;DHT22;49010;51.230;-2.306;2023-02-18T16:42:00;13.50;95.10
62916;DHT22;49010;51.230;-2.306;2023-02-18T16:45:44;13.40;95.40
62916;DHT22;49010;51.230;-2.306;2023-02-18T16:49:30;13.30;95.00
62916;DHT22;49010;51.230;-2.306;2023-02-18T16:53:13;13.20;95.30
62916;DHT22;49010;51.230;-2.306;2023-02-18T16:56:54;13.10;94.90
62916;DHT22;49010;51.230;-2.306;2023-02-18T17:00:37;13.00;94.80
62916;DHT22;49010;51.230;-2.306;2023-02-18T17:04:19;13.00;94.80
62916;DHT22;49010;51.230;-2.306;2023-02-18T17:11:57;13.00;95.20
62916;DHT22;49010;51.230;-2.306;2023-02-18T17:15:41;12.90;95.00
62916;DHT22;49010;51.230;-2.306;2023-02-18T17:19:23;12.80;94.50
62916;DHT22;49010;51.230;-2.306;2023-02-18T17:23:05;12.80;94.20
62916;DHT22;49010;51.230;-2.306;2023-02-18T17:26:47;12.80;94.30
62916;DHT22;49010;51.230;-2.306;2023-02-18T17:30:30;12.80;94.50
62916;DHT22;49010;51.230;-2.306;2023-02-18T17:34:17;12.70;94.20
62916;DHT22;49010;51.230;-2.306;2023-02-18T17:38:01;12.70;94.10
62916;DHT22;49010;51.230;-2.306;2023-02-18T17:41:43;12.70;93.90
62916;DHT22;49010;51.230;-2.306;2023-02-18T17:45:34;12.80;93.90
62916;DHT22;49010;51.230;-2.306;2023-02-18T17:49:17;12.70;93.80
62916;DHT22;49010;51.230;-2.306;2023-02-18T17:52:59;12.70;94.10
62916;DHT22;49010;51.230;-2.306;2023-02-18T17:56:41;12.60;93.80
62916;DHT22;49010;51.230;-2.306;2023-02-18T18:00:29;12.60;93.60
62916;DHT22;49010;51.230;-2.306;2023-02-18T18:04:17;12.60;93.50
62916;DHT22;49010;51.230;-2.306;2023-02-18T18:08:00;12.60;93.80
62916;DHT22;49010;51.230;-2.306;2023-02-18T18:11:42;12.60;93.40
62916;DHT22;49010;51.230;-2.306;2023-02-18T18:15:32;12.60;93.50
62916;DHT22;49010;51.230;-2.306;2023-02-18T18:19:15;12.60;93.80
62916;DHT22;49010;51.230;-2.306;2023-02-18T18:22:58;12.50;93.80
62916;DHT22;49010;51.230;-2.306;2023-02-18T18:26:40;12.50;93.70
62916;DHT22;49010;51.230;-2.306;2023-02-18T18:30:25;12.60;93.90
62916;DHT22;49010;51.230;-2.306;2023-02-18T18:34:08;12.50;94.40
62916;DHT22;49010;51.230;-2.306;2023-02-18T18:37:50;12.40;94.10
62916;DHT22;49010;51.230;-2.306;2023-02-18T18:41:32;12.50;94.60
62916;DHT22;49010;51.230;-2.306;2023-02-18T18:45:18;12.50;94.60
62916;DHT22;49010;51.230;-2.306;2023-02-18T18:49:00;12.50;94.80
62916;DHT22;49010;51.230;-2.306;2023-02-18T18:52:42;12.40;94.80
62916;DHT22;49010;51.230;-2.306;2023-02-18T18:56:24;12.50;94.80
62916;DHT22;49010;51.230;-2.306;2023-02-18T19:00:06;12.50;94.80
62916;DHT22;49010;51.230;-2.306;2023-02-18T19:03:48;12.50;95.00
62916;DHT22;49010;51.230;-2.306;2023-02-18T19:07:30;12.40;95.00
62916;DHT22;49010;51.230;-2.306;2023-02-18T19:11:13;12.40;95.30
62916;DHT22;49010;51.230;-2.306;2023-02-18T19:14:55;12.40;95.10
62916;DHT22;49010;51.230;-2.306;2023-02-18T19:18:37;12.40;95.10
62916;DHT22;49010;51.230;-2.306;2023-02-18T19:22:18;12.40;95.20
62916;DHT22;49010;51.230;-2.306;2023-02-18T19:26:00;12.40;95.20
62916;DHT22;49010;51.230;-2.306;2023-02-18T19:29:42;12.40;95.40
62916;DHT22;49010;51.230;-2.306;2023-02-18T19:33:24;12.30;95.30
62916;DHT22;49010;51.230;-2.306;2023-02-18T19:37:05;12.40;95.30
62916;DHT22;49010;51.230;-2.306;2023-02-18T19:40:47;12.40;95.30
62916;DHT22;49010;51.230;-2.306;2023-02-18T19:44:33;12.40;95.40
62916;DHT22;49010;51.230;-2.306;2023-02-18T19:48:15;12.40;95.50
62916;DHT22;49010;51.230;-2.306;2023-02-18T19:51:57;12.40;95.50
62916;DHT22;49010;51.230;-2.306;2023-02-18T19:55:44;12.40;95.60
62916;DHT22;49010;51.230;-2.306;2023-02-18T19:59:28;12.40;96.40
62916;DHT22;49010;51.230;-2.306;2023-02-18T20:03:10;12.40;95.70
62916;DHT22;49010;51.230;-2.306;2023-02-18T20:06:52;12.30;95.80
62916;DHT22;49010;51.230;-2.306;2023-02-18T20:10:34;12.30;95.90
62916;DHT22;49010;51.230;-2.306;2023-02-18T20:14:16;12.30;95.80
62916;DHT22;49010;51.230;-2.306;2023-02-18T20:18:00;12.30;95.90
62916;DHT22;49010;51.230;-2.306;2023-02-18T20:21:42;12.30;95.90
62916;DHT22;49010;51.230;-2.306;2023-02-18T20:25:23;12.30;96.10
62916;DHT22;49010;51.230;-2.306;2023-02-18T20:29:07;12.20;96.20
62916;DHT22;49010;51.230;-2.306;2023-02-18T20:32:49;12.20;96.50
62916;DHT22;49010;51.230;-2.306;2023-02-18T20:36:31;12.10;96.10
62916;DHT22;49010;51.230;-2.306;2023-02-18T20:40:13;12.10;96.10
62916;DHT22;49010;51.230;-2.306;2023-02-18T20:43:58;12.10;96.40
62916;DHT22;49010;51.230;-2.306;2023-02-18T20:47:40;12.10;96.00
62916;DHT22;49010;51.230;-2.306;2023-02-18T20:51:22;12.10;96.10
62916;DHT22;49010;51.230;-2.306;2023-02-18T20:55:04;12.00;96.10
62916;DHT22;49010;51.230;-2.306;2023-02-18T20:58:46;12.00;96.10
62916;DHT22;49010;51.230;-2.306;2023-02-18T21:02:29;12.00;96.00
62916;DHT22;49010;51.230;-2.306;2023-02-18T21:06:13;11.90;95.90
62916;DHT22;49010;51.230;-2.306;2023-02-18T21:09:56;11.90;95.80
62916;DHT22;49010;51.230;-2.306;2023-02-18T21:13:37;11.80;95.90
62916;DHT22;49010;51.230;-2.306;2023-02-18T21:17:19;11.80;96.00
62916;DHT22;49010;51.230;-2.306;2023-02-18T21:21:03;11.80;96.10
62916;DHT22;49010;51.230;-2.306;2023-02-18T21:24:49;11.80;96.10
62916;DHT22;49010;51.230;-2.306;2023-02-18T21:28:31;11.80;96.20
62916;DHT22;49010;51.230;-2.306;2023-02-18T21:32:13;11.80;96.10
62916;DHT22;49010;51.230;-2.306;2023-02-18T21:35:55;11.80;96.20
62916;DHT22;49010;51.230;-2.306;2023-02-18T21:39:37;11.80;96.20
62916;DHT22;49010;51.230;-2.306;2023-02-18T21:43:18;11.80;96.20
62916;DHT22;49010;51.230;-2.306;2023-02-18T21:47:00;11.80;96.20
62916;DHT22;49010;51.230;-2.306;2023-02-18T21:50:42;11.70;96.20
62916;DHT22;49010;51.230;-2.306;2023-02-18T21:54:26;11.80;96.20
62916;DHT22;49010;51.230;-2.306;2023-02-18T21:58:08;11.80;96.10
62916;DHT22;49010;51.230;-2.306;2023-02-18T22:01:50;11.80;96.10
62916;DHT22;49010;51.230;-2.306;2023-02-18T22:05:32;11.80;96.10
62916;DHT22;49010;51.230;-2.306;2023-02-18T22:09:14;11.70;96.10
62916;DHT22;49010;51.230;-2.306;2023-02-18T22:12:56;11.60;96.20
62916;DHT22;49010;51.230;-2.306;2023-02-18T22:16:37;11.50;96.10
62916;DHT22;49010;51.230;-2.306;2023-02-18T22:20:19;11.50;96.10
62916;DHT22;49010;51.230;-2.306;2023-02-18T22:24:03;11.40;96.00
62916;DHT22;49010;51.230;-2.306;2023-02-18T22:27:45;11.20;96.00
62916;DHT22;49010;51.230;-2.306;2023-02-18T22:31:28;11.20;96.00
62916;DHT22;49010;51.230;-2.306;2023-02-18T22:35:10;11.00;96.00
62916;DHT22;49010;51.230;-2.306;2023-02-18T22:38:52;11.00;96.00
62916;DHT22;49010;51.230;-2.306;2023-02-18T22:42:34;10.90;96.10
62916;DHT22;49010;51.230;-2.306;2023-02-18T22:46:16;10.80;96.20
62916;DHT22;49010;51.230;-2.306;2023-02-18T22:49:58;10.70;96.30
62916;DHT22;49010;51.230;-2.306;2023-02-18T22:53:41;10.70;96.80
62916;DHT22;49010;51.230;-2.306;2023-02-18T22:57:23;10.60;96.50
62916;DHT22;49010;51.230;-2.306;2023-02-18T23:01:05;10.60;96.50
62916;DHT22;49010;51.230;-2.306;2023-02-18T23:04:48;10.50;96.50
62916;DHT22;49010;51.230;-2.306;2023-02-18T23:08:31;10.50;96.60
62916;DHT22;49010;51.230;-2.306;2023-02-18T23:12:13;10.50;96.60
62916;DHT22;49010;51.230;-2.306;2023-02-18T23:16:03;10.50;96.70
62916;DHT22;49010;51.230;-2.306;2023-02-18T23:19:50;10.40;96.70
62916;DHT22;49010;51.230;-2.306;2023-02-18T23:23:35;10.40;96.70
62916;DHT22;49010;51.230;-2.306;2023-02-18T23:27:18;10.40;96.80
62916;DHT22;49010;51.230;-2.306;2023-02-18T23:31:00;10.30;96.70
62916;DHT22;49010;51.230;-2.306;2023-02-18T23:34:41;10.30;96.80
62916;DHT22;49010;51.230;-2.306;2023-02-18T23:38:23;10.20;96.80
62916;DHT22;49010;51.230;-2.306;2023-02-18T23:42:05;10.20;96.80
62916;DHT22;49010;51.230;-2.306;2023-02-18T23:45:47;10.10;96.90
62916;DHT22;49010;51.230;-2.306;2023-02-18T23:49:29;10.10;96.90
62916;DHT22;49010;51.230;-2.306;2023-02-18T23:53:10;10.10;96.90
62916;DHT22;49010;51.230;-2.306;2023-02-18T23:56:52;10.10;96.90
